Time;durP1;ratioP1;P1;durP2;ratioP2;P2;SDS_P1;SDS_P2;PMS_P1;PMS_P2;Temp;Humidity;BMP_temperature;BMP_pressure;BME280_temperature;BME280_humidity;BME280_pressure;Samples;Min_cycle;Max_cycle;Signal;HPM_P1;HPM_P2
2021/08/20 00:00:24;;;;;;;7.43;5.23;;;17.60;99.90;;;;;;5056446;28;20255;-84
2021/08/20 00:02:49;;;;;;;6.97;5.50;;;17.60;99.90;;;;;;5056504;28;20219;-84
2021/08/20 00:05:15;;;;;;;8.37;5.70;;;17.70;99.90;;;;;;5060440;28;20690;-77
2021/08/20 00:07:42;;;;;;;8.17;5.90;;;17.60;99.90;;;;;;5067056;28;20196;-78
2021/08/20 00:10:09;;;;;;;8.60;5.87;;;17.70;99.90;;;;;;5061541;28;20507;-85
2021/08/20 00:12:35;;;;;;;8.30;6.23;;;17.90;99.90;;;;;;5056344;28;20246;-77
2021/08/20 00:15:01;;;;;;;10.10;6.53;;;18.00;99.90;;;;;;5055933;28;20196;-81
2021/08/20 00:17:27;;;;;;;9.90;6.60;;;18.00;99.90;;;;;;5056487;28;20583;-83
2021/08/20 00:19:53;;;;;;;8.37;6.40;;;17.90;99.90;;;;;;5055757;28;20263;-85
2021/08/20 00:22:18;;;;;;;9.50;6.30;;;17.80;99.90;;;;;;5055388;28;20176;-81
2021/08/20 00:24:44;;;;;;;11.97;7.80;;;17.80;99.90;;;;;;5055805;28;20303;-83
2021/08/20 00:27:11;;;;;;;11.63;7.53;;;17.80;99.90;;;;;;5037553;28;20818;-84
2021/08/20 00:29:36;;;;;;;10.97;8.03;;;17.90;99.90;;;;;;5038012;28;20311;-84
2021/08/20 00:32:02;;;;;;;12.33;7.60;;;17.90;99.90;;;;;;5055656;28;20255;-84
2021/08/20 00:34:28;;;;;;;10.37;8.07;;;17.90;99.90;;;;;;5056285;28;20204;-83
2021/08/20 00:36:54;;;;;;;14.03;8.20;;;17.90;99.90;;;;;;5055561;28;20390;-79
2021/08/20 00:39:20;;;;;;;11.90;8.30;;;17.90;99.90;;;;;;5055773;28;20177;-81
2021/08/20 00:41:47;;;;;;;12.27;8.30;;;17.90;99.90;;;;;;5055697;28;20582;-80
2021/08/20 00:44:13;;;;;;;11.33;8.03;;;17.90;99.90;;;;;;5055775;28;20166;-79
2021/08/20 00:46:39;;;;;;;12.73;8.27;;;17.80;99.90;;;;;;5056432;28;20220;-78
2021/08/20 00:49:05;;;;;;;13.60;8.90;;;17.80;99.90;;;;;;5063528;28;20179;-77
2021/08/20 00:51:35;;;;;;;11.97;8.27;;;17.80;99.90;;;;;;5059827;28;20240;-80
2021/08/20 00:54:02;;;;;;;11.53;7.57;;;17.80;99.90;;;;;;5056377;28;20173;-82
2021/08/20 00:56:29;;;;;;;11.40;7.87;;;17.90;99.90;;;;;;5057337;28;20263;-83
2021/08/20 00:58:55;;;;;;;11.83;7.50;;;17.90;99.90;;;;;;5039277;28;20173;-85
2021/08/20 01:01:21;;;;;;;9.73;6.63;;;17.90;99.90;;;;;;5060039;28;20214;-85
2021/08/20 01:03:47;;;;;;;9.00;6.57;;;17.80;99.90;;;;;;5056815;28;20180;-83
2021/08/20 01:06:13;;;;;;;9.47;7.03;;;17.70;99.90;;;;;;5056397;28;20201;-78
2021/08/20 01:08:39;;;;;;;9.63;6.53;;;17.80;99.90;;;;;;5055103;28;20574;-83
2021/08/20 01:11:09;;;;;;;9.40;6.03;;;17.80;99.90;;;;;;5037159;28;20177;-81
2021/08/20 01:13:38;;;;;;;8.20;6.00;;;17.70;99.90;;;;;;5054694;28;20254;-80
2021/08/20 01:16:04;;;;;;;8.13;5.87;;;17.70;99.90;;;;;;5054592;28;20211;-78
2021/08/20 01:18:32;;;;;;;8.33;5.73;;;17.80;99.90;;;;;;5054836;28;20163;-81
2021/08/20 01:21:10;;;;;;;7.97;5.37;;;17.70;99.90;;;;;;5054152;28;20184;-82
2021/08/20 01:23:35;;;;;;;6.80;4.83;;;17.90;99.90;;;;;;5054818;28;20244;-84
2021/08/20 01:26:02;;;;;;;7.23;5.27;;;17.90;99.90;;;;;;5036768;28;20316;-85
2021/08/20 01:28:28;;;;;;;5.97;4.70;;;18.00;99.90;;;;;;5054263;28;20635;-81
2021/08/20 01:31:06;;;;;;;7.63;4.93;;;17.90;99.90;;;;;;5054555;28;20546;-77
2021/08/20 01:33:32;;;;;;;7.77;4.50;;;17.90;99.90;;;;;;5058701;28;20170;-85
2021/08/20 01:35:58;;;;;;;7.50;4.83;;;18.00;99.90;;;;;;5069244;28;20168;-76
2021/08/20 01:38:26;;;;;;;5.73;4.77;;;17.90;99.90;;;;;;5077743;28;20195;-76
2021/08/20 01:40:52;;;;;;;5.47;4.20;;;17.80;99.90;;;;;;5077760;28;20186;-76
2021/08/20 01:43:19;;;;;;;5.53;3.93;;;17.80;99.90;;;;;;5078626;28;20177;-75
2021/08/20 01:45:45;;;;;;;6.00;4.20;;;17.80;99.90;;;;;;5077413;28;20210;-75
2021/08/20 01:48:11;;;;;;;4.50;3.90;;;17.70;99.90;;;;;;5073232;28;20185;-75
2021/08/20 01:50:40;;;;;;;5.60;4.00;;;17.70;99.90;;;;;;5053587;28;20177;-76
2021/08/20 01:53:14;;;;;;;5.17;4.00;;;17.60;99.90;;;;;;5067654;28;20184;-81
2021/08/20 01:55:46;;;;;;;6.07;4.30;;;17.70;99.90;;;;;;5053599;28;20618;-79
2021/08/20 01:58:33;;;;;;;4.90;3.67;;;17.80;99.90;;;;;;5054058;28;20157;-85
2021/08/20 02:00:59;;;;;;;5.60;3.80;;;17.70;99.90;;;;;;5052824;28;20169;-79
2021/08/20 02:03:25;;;;;;;4.70;3.90;;;17.90;99.90;;;;;;5053823;28;20185;-79
2021/08/20 02:05:50;;;;;;;5.17;3.77;;;17.80;99.90;;;;;;5064259;28;20189;-75
2021/08/20 02:08:16;;;;;;;5.23;3.50;;;17.70;99.90;;;;;;5075733;28;20153;-75
2021/08/20 02:10:41;;;;;;;5.07;4.10;;;17.80;99.90;;;;;;5066326;28;20180;-76
2021/08/20 02:13:10;;;;;;;4.33;3.50;;;17.80;99.90;;;;;;5060332;28;20227;-79
2021/08/20 02:15:38;;;;;;;5.80;3.60;;;17.80;99.90;;;;;;5054889;28;20641;-81
2021/08/20 02:18:03;;;;;;;5.43;4.10;;;17.90;99.90;;;;;;5053390;28;20641;-82
2021/08/20 02:20:29;;;;;;;8.27;3.70;;;18.00;99.90;;;;;;5066293;28;20161;-76
2021/08/20 02:22:55;;;;;;;5.97;3.83;;;18.00;99.90;;;;;;5055697;28;20181;-76
2021/08/20 02:25:20;;;;;;;6.40;4.03;;;18.00;99.90;;;;;;5067633;28;20209;-77
2021/08/20 02:27:47;;;;;;;5.83;3.50;;;18.00;99.90;;;;;;5065490;28;20202;-84
2021/08/20 02:30:13;;;;;;;5.60;4.40;;;18.00;99.90;;;;;;5054445;28;20256;-77
2021/08/20 02:32:38;;;;;;;5.00;3.77;;;18.20;99.90;;;;;;5053813;28;20198;-78
2021/08/20 02:35:04;;;;;;;5.80;4.07;;;18.10;99.90;;;;;;5055016;28;20254;-77
2021/08/20 02:37:30;;;;;;;5.37;3.90;;;18.10;99.90;;;;;;5053398;28;20173;-78
2021/08/20 02:39:55;;;;;;;6.07;3.33;;;18.20;99.90;;;;;;5053093;28;20180;-78
2021/08/20 02:42:21;;;;;;;3.70;3.30;;;18.20;99.90;;;;;;5044540;28;20258;-77
2021/08/20 02:44:47;;;;;;;5.17;3.70;;;18.30;99.90;;;;;;5072941;28;20175;-74
2021/08/20 02:47:12;;;;;;;4.90;3.60;;;18.30;99.90;;;;;;5064864;28;20262;-75
2021/08/20 02:49:38;;;;;;;6.07;3.77;;;18.10;99.90;;;;;;5054514;28;20243;-75
2021/08/20 02:52:04;;;;;;;4.77;3.57;;;18.10;99.90;;;;;;5053295;28;20224;-75
2021/08/20 02:54:33;;;;;;;4.50;3.30;;;18.00;99.90;;;;;;5053160;28;20157;-78
2021/08/20 02:56:58;;;;;;;4.90;3.40;;;18.10;99.90;;;;;;5053031;28;20256;-76
2021/08/20 02:59:24;;;;;;;5.00;3.50;;;18.00;99.90;;;;;;5053053;28;20199;-77
2021/08/20 03:01:51;;;;;;;4.67;3.40;;;17.90;99.90;;;;;;5053762;28;20180;-76
2021/08/20 03:04:16;;;;;;;4.60;3.60;;;18.00;99.90;;;;;;5052832;28;20169;-75
2021/08/20 03:06:43;;;;;;;4.27;3.60;;;18.10;99.90;;;;;;5051896;28;20208;-75
2021/08/20 03:09:10;;;;;;;5.33;3.70;;;18.10;99.90;;;;;;5052841;28;20253;-76
2021/08/20 03:11:36;;;;;;;4.50;3.70;;;18.00;99.90;;;;;;5053260;28;20215;-76
2021/08/20 03:14:02;;;;;;;5.07;3.87;;;18.10;99.90;;;;;;5052991;28;20175;-76
2021/08/20 03:16:28;;;;;;;7.30;4.27;;;18.00;99.90;;;;;;5037075;28;20173;-76
2021/08/20 03:18:54;;;;;;;6.53;4.23;;;18.00;99.90;;;;;;5056562;28;20204;-76
2021/08/20 03:21:19;;;;;;;6.60;4.00;;;17.90;99.90;;;;;;5056517;28;20168;-76
2021/08/20 03:23:45;;;;;;;5.90;4.87;;;17.90;99.90;;;;;;5057198;28;20223;-77
2021/08/20 03:26:11;;;;;;;5.30;3.77;;;17.90;99.90;;;;;;5057089;28;20192;-76
2021/08/20 03:28:36;;;;;;;6.80;4.60;;;17.80;99.90;;;;;;5056967;28;20196;-76
2021/08/20 03:31:02;;;;;;;5.93;4.70;;;17.90;99.90;;;;;;5056504;28;20215;-76
2021/08/20 03:33:28;;;;;;;6.17;4.50;;;18.00;99.90;;;;;;5055942;28;20176;-80
2021/08/20 03:35:53;;;;;;;6.27;5.20;;;17.90;99.90;;;;;;5056246;28;20649;-75
2021/08/20 03:38:21;;;;;;;6.67;5.20;;;17.90;99.90;;;;;;5055938;28;20196;-76
2021/08/20 03:40:48;;;;;;;7.40;5.53;;;17.80;99.90;;;;;;5055879;28;20558;-75
2021/08/20 03:43:14;;;;;;;7.10;5.70;;;17.70;99.90;;;;;;5054591;28;20172;-76
2021/08/20 03:45:40;;;;;;;7.10;5.70;;;17.80;99.90;;;;;;5055344;28;20213;-77
2021/08/20 03:48:05;;;;;;;10.00;5.97;;;17.80;99.90;;;;;;5055806;28;20209;-76
2021/08/20 03:50:31;;;;;;;6.83;5.93;;;17.80;99.90;;;;;;5056282;28;20674;-76
2021/08/20 03:52:57;;;;;;;9.97;6.47;;;17.80;99.90;;;;;;5055799;28;20169;-76
2021/08/20 03:55:22;;;;;;;7.90;6.60;;;17.80;99.90;;;;;;5055611;28;20204;-76
2021/08/20 03:57:49;;;;;;;8.87;7.10;;;18.10;99.90;;;;;;5055579;28;20636;-77
2021/08/20 04:00:16;;;;;;;8.70;7.80;;;17.90;99.90;;;;;;5055196;28;20252;-75
2021/08/20 04:02:41;;;;;;;9.17;8.30;;;17.80;99.90;;;;;;5055540;28;20178;-75
2021/08/20 04:05:07;;;;;;;9.43;8.43;;;17.80;99.90;;;;;;5055298;28;20649;-80
2021/08/20 04:07:32;;;;;;;9.73;8.83;;;17.60;99.90;;;;;;5055607;28;20261;-76
2021/08/20 04:09:59;;;;;;;11.33;9.53;;;17.80;99.90;;;;;;5056085;28;20203;-82
2021/08/20 04:12:25;;;;;;;9.90;9.00;;;17.70;99.90;;;;;;5055698;28;20648;-81
2021/08/20 04:14:50;;;;;;;11.20;9.23;;;17.70;99.90;;;;;;5055480;28;20172;-76
2021/08/20 04:17:16;;;;;;;9.20;8.20;;;17.60;99.90;;;;;;5055431;28;20165;-76
2021/08/20 04:19:43;;;;;;;10.20;9.10;;;17.60;99.90;;;;;;5057704;28;20177;-83
2021/08/20 04:22:08;;;;;;;10.07;9.17;;;17.70;99.90;;;;;;5066804;28;20195;-75
2021/08/20 04:24:34;;;;;;;11.30;9.00;;;17.70;99.90;;;;;;5049549;28;20199;-77
2021/08/20 04:27:00;;;;;;;9.57;8.57;;;17.60;99.90;;;;;;5063090;28;20211;-77
2021/08/20 04:29:25;;;;;;;9.67;8.67;;;17.60;99.90;;;;;;5060150;28;20645;-75
2021/08/20 04:31:51;;;;;;;9.93;8.93;;;17.60;99.90;;;;;;5055607;28;20580;-85
2021/08/20 04:34:17;;;;;;;9.37;8.50;;;17.60;99.90;;;;;;5055280;28;20577;-76
2021/08/20 04:36:42;;;;;;;9.80;8.67;;;17.50;99.90;;;;;;5055075;28;20173;-77
2021/08/20 04:39:08;;;;;;;9.40;8.23;;;17.50;99.90;;;;;;5055594;28;20165;-83
2021/08/20 04:41:33;;;;;;;8.53;7.63;;;17.60;99.90;;;;;;5072177;28;20180;-74
2021/08/20 04:43:59;;;;;;;8.60;7.70;;;17.50;99.90;;;;;;5076245;28;20181;-74
2021/08/20 04:46:25;;;;;;;8.87;7.97;;;17.60;99.90;;;;;;5057733;28;20212;-76
2021/08/20 04:48:51;;;;;;;8.40;7.60;;;17.50;99.90;;;;;;5055373;28;20184;-76
2021/08/20 04:51:17;;;;;;;7.90;7.10;;;17.40;99.90;;;;;;5055012;28;20177;-85
2021/08/20 04:53:43;;;;;;;9.47;7.87;;;17.50;99.90;;;;;;5054416;28;20185;-85
2021/08/20 04:56:10;;;;;;;7.97;7.10;;;17.40;99.90;;;;;;5055389;28;20529;-82
2021/08/20 04:58:35;;;;;;;8.80;8.00;;;17.50;99.90;;;;;;5055480;28;20181;-81
2021/08/20 05:01:02;;;;;;;7.47;6.67;;;17.50;99.90;;;;;;5055398;28;20248;-77
2021/08/20 05:03:28;;;;;;;7.80;7.03;;;17.50;99.90;;;;;;5055902;28;20179;-78
2021/08/20 05:05:54;;;;;;;9.50;7.57;;;17.50;99.90;;;;;;5055481;28;20204;-83
2021/08/20 05:08:20;;;;;;;9.77;7.70;;;17.60;99.90;;;;;;5058614;28;20177;-82
2021/08/20 05:10:45;;;;;;;9.90;7.20;;;17.50;99.90;;;;;;5055145;28;20173;-85
2021/08/20 05:13:11;;;;;;;8.03;7.20;;;17.50;99.90;;;;;;5054685;28;20629;-76
2021/08/20 05:15:37;;;;;;;7.90;7.10;;;17.60;99.90;;;;;;5055029;28;20174;-83
2021/08/20 05:18:03;;;;;;;10.63;6.87;;;17.50;99.90;;;;;;5055305;28;20169;-83
2021/08/20 05:20:29;;;;;;;9.00;7.30;;;17.60;99.90;;;;;;5055682;28;20184;-85
2021/08/20 05:22:56;;;;;;;9.20;7.87;;;17.70;99.90;;;;;;5054947;28;20690;-76
2021/08/20 05:25:24;;;;;;;9.33;7.27;;;17.60;99.90;;;;;;5055009;28;20185;-79
2021/08/20 05:27:51;;;;;;;8.03;7.23;;;17.60;99.90;;;;;;5037043;28;20227;-80
2021/08/20 05:30:17;;;;;;;8.07;7.20;;;17.70;99.90;;;;;;5054671;28;20637;-84
2021/08/20 05:32:43;;;;;;;7.90;6.47;;;17.70;99.90;;;;;;5054602;28;20178;-85
2021/08/20 05:35:11;;;;;;;7.67;6.87;;;17.80;99.90;;;;;;5058764;28;20193;-79
2021/08/20 05:37:37;;;;;;;8.33;7.53;;;17.70;99.90;;;;;;5076637;28;20172;-74
2021/08/20 05:40:04;;;;;;;8.23;7.30;;;17.70;99.90;;;;;;5058331;28;20185;-76
2021/08/20 05:42:30;;;;;;;9.73;8.03;;;17.80;99.90;;;;;;5068502;28;20169;-76
2021/08/20 05:44:57;;;;;;;8.27;7.47;;;17.80;99.90;;;;;;5055770;28;20169;-76
2021/08/20 05:47:23;;;;;;;9.03;8.13;;;17.80;99.90;;;;;;5054094;28;20218;-75
2021/08/20 05:49:49;;;;;;;10.47;8.80;;;17.80;99.90;;;;;;5059915;28;20167;-76
2021/08/20 05:52:15;;;;;;;9.63;8.63;;;17.80;99.90;;;;;;5055493;28;20267;-81
2021/08/20 05:54:41;;;;;;;10.83;9.63;;;17.80;99.90;;;;;;5057504;28;20199;-77
2021/08/20 05:57:06;;;;;;;10.10;9.10;;;17.80;99.90;;;;;;5038620;28;20179;-75
2021/08/20 05:59:32;;;;;;;10.37;9.30;;;17.70;99.90;;;;;;5065654;28;20248;-76
2021/08/20 06:01:58;;;;;;;10.53;9.57;;;17.80;99.90;;;;;;5062531;28;20171;-76
2021/08/20 06:04:23;;;;;;;10.43;9.43;;;17.80;99.90;;;;;;5063271;28;20162;-76
2021/08/20 06:06:49;;;;;;;10.43;9.33;;;17.80;99.90;;;;;;5045283;28;20217;-77
2021/08/20 06:09:16;;;;;;;11.27;10.17;;;17.70;99.90;;;;;;5059663;28;20184;-76
2021/08/20 06:11:42;;;;;;;10.10;9.10;;;17.70;99.90;;;;;;5060927;28;20197;-82
2021/08/20 06:14:07;;;;;;;11.47;10.23;;;17.80;99.90;;;;;;5059360;28;20203;-83
2021/08/20 06:16:33;;;;;;;11.77;10.20;;;17.80;99.90;;;;;;5067736;28;20221;-76
2021/08/20 06:18:59;;;;;;;10.90;9.80;;;17.90;99.90;;;;;;5077795;28;20157;-84
2021/08/20 06:21:24;;;;;;;10.53;9.53;;;17.90;99.90;;;;;;5075220;28;20173;-79
2021/08/20 06:23:52;;;;;;;10.07;8.73;;;18.00;99.90;;;;;;5077220;28;20188;-75
2021/08/20 06:26:18;;;;;;;9.77;8.87;;;18.10;99.90;;;;;;5076134;28;20217;-76
2021/08/20 06:28:46;;;;;;;11.60;9.17;;;18.10;99.90;;;;;;5068493;28;20274;-78
2021/08/20 06:31:13;;;;;;;11.90;9.63;;;18.30;99.90;;;;;;5066675;28;20255;-77
2021/08/20 06:33:40;;;;;;;10.10;9.10;;;18.30;99.90;;;;;;5061964;28;20177;-76
2021/08/20 06:39:31;;;;;;;9.50;8.50;;;18.30;99.90;;;;;;5054506;28;20172;-77
2021/08/20 06:41:59;;;;;;;9.90;8.90;;;18.40;99.90;;;;;;5058102;28;20180;-77
2021/08/20 06:44:26;;;;;;;10.30;9.37;;;18.30;99.90;;;;;;5059517;28;20173;-75
2021/08/20 06:46:52;;;;;;;10.73;8.33;;;18.40;99.90;;;;;;5059572;28;20209;-77
2021/08/20 06:49:18;;;;;;;11.20;8.23;;;18.40;99.90;;;;;;5057095;28;20180;-75
2021/08/20 06:51:44;;;;;;;10.53;9.43;;;18.30;99.90;;;;;;5042807;28;20630;-77
2021/08/20 06:54:10;;;;;;;9.63;8.43;;;18.30;99.90;;;;;;5064257;28;20174;-78
2021/08/20 06:56:35;;;;;;;8.53;7.73;;;18.30;99.90;;;;;;5048522;28;20181;-75
2021/08/20 06:59:01;;;;;;;9.27;8.37;;;18.40;99.90;;;;;;5065948;28;20172;-76
2021/08/20 07:01:28;;;;;;;8.60;7.57;;;18.50;99.90;;;;;;5062998;28;20174;-76
2021/08/20 07:03:55;;;;;;;8.67;7.83;;;18.40;99.90;;;;;;5062267;28;20172;-76
2021/08/20 07:06:23;;;;;;;10.50;7.70;;;18.40;99.90;;;;;;5059306;28;20202;-83
2021/08/20 07:08:50;;;;;;;9.00;8.10;;;18.40;99.90;;;;;;5041154;28;20256;-79
2021/08/20 07:11:20;;;;;;;9.23;8.10;;;18.60;99.90;;;;;;5062368;28;20687;-80
2021/08/20 07:13:46;;;;;;;8.37;7.63;;;18.60;99.90;;;;;;5060539;28;20190;-78
2021/08/20 07:16:12;;;;;;;12.37;6.97;;;18.70;99.90;;;;;;5069293;28;20160;-75
2021/08/20 07:18:38;;;;;;;8.87;7.63;;;18.70;99.90;;;;;;5079703;28;20232;-76
2021/08/20 07:21:04;;;;;;;8.30;7.40;;;18.70;99.90;;;;;;5066314;28;20165;-77
2021/08/20 07:23:31;;;;;;;7.80;7.10;;;18.70;99.90;;;;;;5045236;28;20173;-82
2021/08/20 07:25:59;;;;;;;7.83;7.03;;;18.70;99.90;;;;;;5060396;28;20257;-81
2021/08/20 07:28:26;;;;;;;8.03;7.20;;;19.00;99.90;;;;;;5059329;28;20185;-79
2021/08/20 07:30:54;;;;;;;7.77;6.97;;;18.80;99.90;;;;;;5058644;28;20642;-83
2021/08/20 07:33:19;;;;;;;8.17;7.37;;;18.70;99.90;;;;;;5057503;28;20165;-81
2021/08/20 07:35:45;;;;;;;8.13;7.10;;;18.80;99.90;;;;;;5057144;28;20188;-79
2021/08/20 07:38:10;;;;;;;8.17;6.77;;;18.90;99.90;;;;;;5057230;28;20562;-85
2021/08/20 07:40:36;;;;;;;7.77;6.93;;;18.90;99.90;;;;;;5058193;28;20164;-79
2021/08/20 07:43:02;;;;;;;8.43;7.57;;;18.90;99.90;;;;;;5058275;28;20223;-85
2021/08/20 07:45:29;;;;;;;9.57;7.70;;;18.90;99.90;;;;;;5060420;28;20661;-75
2021/08/20 07:47:55;;;;;;;9.17;7.63;;;18.90;99.90;;;;;;5059114;28;20222;-83
2021/08/20 07:50:21;;;;;;;10.07;7.70;;;18.80;99.90;;;;;;5040577;28;20173;-78
2021/08/20 07:52:47;;;;;;;9.23;8.33;;;18.80;99.90;;;;;;5058864;28;20224;-81
2021/08/20 07:55:14;;;;;;;8.17;7.37;;;18.80;99.90;;;;;;5058414;28;20165;-83
2021/08/20 07:57:51;;;;;;;8.77;7.47;;;18.90;99.90;;;;;;5059041;28;20169;-80
2021/08/20 08:00:22;;;;;;;10.30;7.70;;;18.90;99.90;;;;;;5059323;28;20173;-79
2021/08/20 08:02:48;;;;;;;7.97;6.93;;;19.00;99.90;;;;;;5058227;28;20684;-77
2021/08/20 08:05:14;;;;;;;8.27;6.97;;;19.00;99.90;;;;;;5059233;28;20265;-77
2021/08/20 08:07:39;;;;;;;8.70;7.00;;;19.20;99.90;;;;;;5057582;28;20536;-77
2021/08/20 08:10:06;;;;;;;8.83;6.67;;;19.20;99.90;;;;;;5057457;28;20633;-77
2021/08/20 08:12:32;;;;;;;8.33;6.73;;;19.20;99.90;;;;;;5062487;28;20184;-76
2021/08/20 08:14:58;;;;;;;9.67;7.03;;;19.20;99.90;;;;;;5064129;28;20181;-77
2021/08/20 08:17:24;;;;;;;6.90;6.20;;;19.20;99.90;;;;;;5057707;28;20228;-78
2021/08/20 08:19:50;;;;;;;9.07;6.70;;;19.20;99.90;;;;;;5058986;28;20212;-79
2021/08/20 08:22:15;;;;;;;10.27;6.60;;;19.30;99.90;;;;;;5057668;28;20181;-76
2021/08/20 08:24:42;;;;;;;7.00;6.30;;;19.40;99.90;;;;;;5055932;28;20652;-76
2021/08/20 08:27:07;;;;;;;8.73;6.30;;;19.50;99.90;;;;;;5056820;28;20218;-76
2021/08/20 08:29:34;;;;;;;7.87;5.43;;;19.50;99.90;;;;;;5058074;28;20174;-78
2021/08/20 08:32:00;;;;;;;7.83;6.27;;;19.60;99.90;;;;;;5059022;28;20539;-79
2021/08/20 08:34:26;;;;;;;9.17;5.80;;;19.90;99.90;;;;;;5041471;28;20180;-77
2021/08/20 08:36:52;;;;;;;6.53;5.40;;;20.00;99.90;;;;;;5058531;28;20175;-78
2021/08/20 08:39:18;;;;;;;6.33;5.60;;;20.00;99.90;;;;;;5059582;28;20664;-77
2021/08/20 08:41:44;;;;;;;6.80;5.10;;;20.10;99.00;;;;;;5060104;28;20172;-76
2021/08/20 08:44:13;;;;;;;6.83;5.13;;;20.00;99.00;;;;;;5061026;28;20190;-83
2021/08/20 08:46:39;;;;;;;5.80;4.57;;;20.20;99.30;;;;;;5061583;28;20577;-77
2021/08/20 08:49:06;;;;;;;6.80;5.20;;;20.30;99.10;;;;;;5072913;28;20172;-75
2021/08/20 08:51:33;;;;;;;7.27;4.47;;;20.30;98.80;;;;;;5065091;28;20171;-77
2021/08/20 08:53:59;;;;;;;6.57;4.47;;;20.50;96.70;;;;;;5045205;28;20261;-76
2021/08/20 08:56:25;;;;;;;6.73;4.33;;;20.70;96.10;;;;;;5060465;28;20230;-80
2021/08/20 08:58:51;;;;;;;5.73;4.03;;;20.80;94.40;;;;;;5060434;28;20560;-81
2021/08/20 09:01:32;;;;;;;5.07;4.43;;;20.60;94.50;;;;;;5044222;28;20278;-77
2021/08/20 09:04:22;;;;;;;5.83;3.87;;;20.60;94.40;;;;;;5058986;28;20331;-76
2021/08/20 09:06:55;;;;;;;4.17;3.60;;;20.70;93.60;;;;;;5056419;28;20285;-78
2021/08/20 09:09:23;;;;;;;6.27;3.83;;;20.80;93.30;;;;;;5057864;28;20177;-78
2021/08/20 09:11:54;;;;;;;7.13;3.93;;;20.80;93.00;;;;;;5062709;28;20228;-77
2021/08/20 09:14:27;;;;;;;4.97;3.13;;;20.70;93.40;;;;;;5059727;28;20186;-77
2021/08/20 09:16:54;;;;;;;5.77;3.30;;;20.60;92.90;;;;;;5059191;28;20271;-76
2021/08/20 09:19:22;;;;;;;5.13;3.30;;;20.60;92.90;;;;;;5057697;28;20598;-77
2021/08/20 09:21:55;;;;;;;4.27;3.23;;;20.60;93.00;;;;;;5055893;28;20218;-78
2021/08/20 09:24:42;;;;;;;4.60;3.03;;;20.60;92.40;;;;;;5038004;28;20194;-76
2021/08/20 09:27:28;;;;;;;3.93;3.03;;;20.60;92.70;;;;;;5055381;28;20214;-76
2021/08/20 09:29:58;;;;;;;4.87;2.70;;;20.70;91.70;;;;;;5057489;28;20525;-77
2021/08/20 09:32:24;;;;;;;5.20;2.80;;;20.70;89.50;;;;;;5070362;28;20169;-76
2021/08/20 09:34:54;;;;;;;4.30;2.83;;;20.80;91.80;;;;;;5069833;28;20174;-78
2021/08/20 09:37:21;;;;;;;6.00;3.03;;;20.70;92.10;;;;;;5057352;28;20163;-78
2021/08/20 09:39:48;;;;;;;3.80;2.73;;;20.70;91.90;;;;;;5056463;28;20175;-75
2021/08/20 09:42:17;;;;;;;3.50;2.50;;;20.80;90.40;;;;;;5058423;28;20698;-78
2021/08/20 09:44:43;;;;;;;5.37;2.50;;;20.90;90.00;;;;;;5041669;28;20183;-77
2021/08/20 09:47:09;;;;;;;4.43;2.60;;;21.20;89.40;;;;;;5058398;28;20237;-76
2021/08/20 09:49:54;;;;;;;4.97;2.33;;;21.20;82.80;;;;;;5059847;28;20252;-78
2021/08/20 09:52:28;;;;;;;3.90;2.20;;;21.20;78.90;;;;;;5074454;28;20168;-75
2021/08/20 09:54:57;;;;;;;3.40;2.00;;;21.10;75.60;;;;;;5069798;28;20155;-77
2021/08/20 09:57:26;;;;;;;3.43;2.20;;;21.10;80.80;;;;;;5063860;28;20678;-77
2021/08/20 09:59:56;;;;;;;3.37;1.93;;;21.20;82.80;;;;;;5044633;28;20247;-77
2021/08/20 10:02:29;;;;;;;4.60;1.80;;;21.30;76.60;;;;;;5058775;28;20237;-79
2021/08/20 10:04:56;;;;;;;3.87;1.83;;;21.30;75.70;;;;;;5057897;28;20189;-80
2021/08/20 10:07:25;;;;;;;2.73;1.50;;;21.40;72.70;;;;;;5060511;28;20212;-80
2021/08/20 10:09:54;;;;;;;2.87;1.70;;;21.30;68.60;;;;;;5060814;28;20167;-78
2021/08/20 10:12:22;;;;;;;3.57;1.30;;;21.20;69.40;;;;;;5059001;28;20167;-79
2021/08/20 10:14:49;;;;;;;3.33;1.40;;;21.20;68.70;;;;;;5060039;28;20165;-86
2021/08/20 10:17:16;;;;;;;3.03;1.60;;;21.30;67.50;;;;;;5058938;28;20176;-77
2021/08/20 10:19:46;;;;;;;2.83;1.40;;;21.20;70.00;;;;;;5057898;28;20163;-85
2021/08/20 10:22:18;;;;;;;3.93;1.63;;;21.30;72.10;;;;;;5058669;28;20179;-76
2021/08/20 10:24:45;;;;;;;3.50;1.40;;;21.30;70.50;;;;;;5042045;28;20996;-78
2021/08/20 10:27:15;;;;;;;3.77;1.77;;;21.30;72.30;;;;;;5062337;28;20210;-79
2021/08/20 10:29:47;;;;;;;4.07;2.03;;;21.30;72.30;;;;;;5062135;28;20155;-79
2021/08/20 10:32:14;;;;;;;4.00;1.70;;;21.30;73.40;;;;;;5042139;28;20238;-84
2021/08/20 10:34:42;;;;;;;3.47;1.80;;;21.50;69.90;;;;;;5038106;28;20267;-80
2021/08/20 10:37:34;;;;;;;3.03;1.80;;;21.50;70.70;;;;;;5061194;28;20171;-77
2021/08/20 10:40:20;;;;;;;4.73;1.97;;;21.50;64.70;;;;;;5062321;28;20167;-77
2021/08/20 10:42:48;;;;;;;3.37;1.53;;;21.40;69.60;;;;;;5061569;28;20175;-80
2021/08/20 10:45:14;;;;;;;4.87;2.13;;;21.30;66.70;;;;;;5058986;28;20263;-77
2021/08/20 10:47:42;;;;;;;5.53;1.77;;;21.50;64.60;;;;;;5055713;28;20644;-77
2021/08/20 10:50:10;;;;;;;2.67;1.73;;;21.70;62.60;;;;;;5057874;28;20187;-80
2021/08/20 10:52:45;;;;;;;3.87;1.90;;;21.60;60.70;;;;;;5044488;28;20193;-77
2021/08/20 10:55:15;;;;;;;4.30;2.07;;;21.60;62.10;;;;;;5060864;28;20204;-80
2021/08/20 10:57:42;;;;;;;4.23;1.80;;;21.80;63.20;;;;;;5060955;28;20187;-83
2021/08/20 11:00:23;;;;;;;3.90;1.80;;;21.90;61.90;;;;;;5061209;28;20171;-86
2021/08/20 11:02:54;;;;;;;2.80;1.83;;;22.00;56.50;;;;;;5047336;28;20183;-76
2021/08/20 11:05:37;;;;;;;3.73;1.97;;;22.20;55.90;;;;;;5061784;28;20167;-77
2021/08/20 11:08:03;;;;;;;4.33;1.70;;;22.10;56.60;;;;;;5043553;28;20178;-77
2021/08/20 11:10:28;;;;;;;2.80;1.50;;;21.90;54.20;;;;;;5058839;28;20230;-79
2021/08/20 11:12:54;;;;;;;4.17;1.77;;;21.90;51.80;;;;;;5056531;28;20532;-78
2021/08/20 11:15:23;;;;;;;2.93;1.70;;;21.90;53.60;;;;;;5058103;28;20238;-78
2021/08/20 11:18:04;;;;;;;5.63;2.00;;;21.90;56.70;;;;;;5061300;28;20543;-80
2021/08/20 11:20:45;;;;;;;3.90;1.80;;;22.00;56.30;;;;;;5057950;28;20183;-78
2021/08/20 11:23:14;;;;;;;3.57;1.60;;;22.00;54.70;;;;;;5055411;28;20172;-83
2021/08/20 11:25:46;;;;;;;4.87;2.20;;;22.00;52.70;;;;;;5059729;28;20196;-77
2021/08/20 11:28:35;;;;;;;3.33;1.60;;;22.10;54.70;;;;;;5058540;28;20197;-84
2021/08/20 11:31:06;;;;;;;5.17;2.17;;;22.10;54.20;;;;;;5055413;28;20172;-81
2021/08/20 11:33:36;;;;;;;4.43;2.20;;;22.00;54.00;;;;;;5057687;28;20159;-79
2021/08/20 11:36:03;;;;;;;4.60;2.40;;;22.00;55.70;;;;;;5056044;28;20176;-84
2021/08/20 11:38:36;;;;;;;3.30;2.20;;;22.10;56.60;;;;;;5061040;28;20229;-84
2021/08/20 11:41:20;;;;;;;3.27;2.30;;;22.10;56.60;;;;;;5059768;28;20184;-81
2021/08/20 11:43:48;;;;;;;3.60;2.33;;;22.00;57.40;;;;;;5060066;28;20181;-79
2021/08/20 11:46:14;;;;;;;3.60;2.20;;;22.10;54.20;;;;;;5060249;28;20205;-77
2021/08/20 11:48:52;;;;;;;3.33;2.43;;;22.00;53.00;;;;;;5059677;28;20193;-79
2021/08/20 11:51:28;;;;;;;3.77;2.00;;;22.00;56.80;;;;;;5060373;28;20168;-77
2021/08/20 11:53:57;;;;;;;3.43;2.13;;;22.10;54.90;;;;;;5060467;28;20182;-84
2021/08/20 11:56:23;;;;;;;4.00;2.13;;;22.20;55.90;;;;;;5059982;28;20172;-80
2021/08/20 11:58:49;;;;;;;3.70;2.00;;;22.30;55.60;;;;;;5059551;28;20188;-85
2021/08/20 12:01:28;;;;;;;3.00;2.10;;;22.30;54.50;;;;;;5053823;28;20630;-75
2021/08/20 12:03:56;;;;;;;3.13;2.07;;;22.40;53.00;;;;;;5071096;28;20234;-76
2021/08/20 12:06:22;;;;;;;4.80;2.53;;;22.60;50.70;;;;;;5062191;28;20206;-78
2021/08/20 12:08:49;;;;;;;5.37;2.40;;;22.70;50.80;;;;;;5046673;28;20183;-79
2021/08/20 12:11:20;;;;;;;4.37;2.77;;;22.80;49.70;;;;;;5061423;28;20173;-78
2021/08/20 12:13:49;;;;;;;4.40;2.63;;;22.80;48.00;;;;;;5039688;28;20185;-78
2021/08/20 12:16:31;;;;;;;4.73;2.20;;;22.70;45.60;;;;;;5060061;28;20625;-79
2021/08/20 12:18:58;;;;;;;5.70;2.50;;;22.50;48.60;;;;;;5040992;28;20217;-81
2021/08/20 12:21:25;;;;;;;5.27;2.10;;;22.70;49.70;;;;;;5061743;28;20629;-79
2021/08/20 12:24:02;;;;;;;3.93;1.90;;;22.80;46.30;;;;;;5075417;28;20169;-76
2021/08/20 12:26:29;;;;;;;5.17;2.43;;;22.90;40.20;;;;;;5069369;28;20218;-79
2021/08/20 12:28:55;;;;;;;3.17;1.70;;;23.00;38.20;;;;;;5061049;28;20194;-81
2021/08/20 12:31:24;;;;;;;3.33;1.90;;;22.90;29.30;;;;;;5064589;28;20161;-82
2021/08/20 12:34:10;;;;;;;3.33;2.10;;;22.90;33.10;;;;;;5060311;28;20533;-82
2021/08/20 12:36:35;;;;;;;3.93;1.63;;;23.10;32.50;;;;;;5058534;28;20212;-82
2021/08/20 12:39:10;;;;;;;4.40;1.73;;;23.40;29.10;;;;;;5059113;28;20165;-79
2021/08/20 12:41:37;;;;;;;3.53;1.73;;;23.50;18.80;;;;;;5059999;28;20203;-84
2021/08/20 12:44:05;;;;;;;5.10;1.83;;;23.70;24.10;;;;;;5059473;28;20239;-81
2021/08/20 12:46:39;;;;;;;3.53;1.93;;;23.90;18.30;;;;;;5041242;28;20221;-78
2021/08/20 12:49:06;;;;;;;4.43;2.00;;;23.90;18.40;;;;;;5057760;28;20171;-81
2021/08/20 12:51:37;;;;;;;3.47;1.50;;;23.70;22.50;;;;;;5058737;28;20189;-79